Time;durP1;ratioP1;P1;durP2;ratioP2;P2;SDS_P1;SDS_P2;PMS_P1;PMS_P2;Temp;Humidity;BMP_temperature;BMP_pressure;BME280_temperature;BME280_humidity;BME280_pressure;Samples;Min_cycle;Max_cycle;Signal;HPM_P1;HPM_P2
2022/03/25 00:02:11;;;;;;;32.03;19.15;;;12.90;36.20;;;;;;5054194;28;20447;-76
2022/03/25 00:04:37;;;;;;;28.05;19.02;;;12.90;36.80;;;;;;5055195;28;20087;-76
2022/03/25 00:07:03;;;;;;;31.45;19.10;;;12.80;36.40;;;;;;5054600;28;20024;-76
2022/03/25 00:09:28;;;;;;;32.60;19.48;;;12.80;36.70;;;;;;5054902;28;20394;-76
2022/03/25 00:11:54;;;;;;;28.70;18.50;;;12.70;36.90;;;;;;5054552;28;20127;-76
2022/03/25 00:14:20;;;;;;;31.60;18.60;;;12.70;37.20;;;;;;5053983;28;20597;-76
2022/03/25 00:16:46;;;;;;;30.85;17.08;;;12.60;37.40;;;;;;5054370;28;20466;-76
2022/03/25 00:19:12;;;;;;;31.27;18.50;;;12.60;37.90;;;;;;5053671;28;20033;-76
2022/03/25 00:21:38;;;;;;;30.67;18.05;;;12.60;37.90;;;;;;5054639;28;20108;-76
2022/03/25 00:24:05;;;;;;;28.15;17.85;;;12.60;38.10;;;;;;5053890;28;20064;-77
2022/03/25 00:26:31;;;;;;;26.15;17.70;;;12.50;38.10;;;;;;5054666;28;20025;-77
2022/03/25 00:28:57;;;;;;;27.05;18.08;;;12.40;38.20;;;;;;5054438;28;20029;-77
2022/03/25 00:31:23;;;;;;;24.10;17.50;;;12.40;38.30;;;;;;5054079;28;20421;-77
2022/03/25 00:33:49;;;;;;;31.88;17.95;;;12.30;38.40;;;;;;5052979;28;20032;-78
2022/03/25 00:36:18;;;;;;;29.17;17.48;;;12.30;38.50;;;;;;5053806;28;20366;-76
2022/03/25 00:38:45;;;;;;;27.05;17.02;;;12.20;38.50;;;;;;5054125;28;20105;-77
2022/03/25 00:41:12;;;;;;;28.25;17.13;;;12.20;38.50;;;;;;5053613;28;20036;-77
2022/03/25 00:43:38;;;;;;;37.10;18.92;;;12.20;38.50;;;;;;5054239;28;20025;-77
2022/03/25 00:46:05;;;;;;;32.03;17.40;;;12.10;38.70;;;;;;5053802;28;20044;-77
2022/03/25 00:48:32;;;;;;;27.45;17.38;;;12.10;38.90;;;;;;5052776;28;20024;-76
2022/03/25 00:50:58;;;;;;;31.25;17.77;;;12.10;39.00;;;;;;5052586;28;20094;-77
2022/03/25 00:53:25;;;;;;;26.95;19.15;;;12.00;39.10;;;;;;5053714;28;20033;-77
2022/03/25 00:55:52;;;;;;;26.30;18.38;;;11.90;39.30;;;;;;5054170;28;20073;-77
2022/03/25 00:58:18;;;;;;;33.60;18.33;;;11.90;40.10;;;;;;5053677;28;20045;-76
2022/03/25 01:00:44;;;;;;;28.13;18.48;;;11.80;39.60;;;;;;5053728;28;20080;-76
2022/03/25 01:03:11;;;;;;;40.38;17.83;;;11.70;39.70;;;;;;5053282;28;20025;-75
2022/03/25 01:05:37;;;;;;;33.40;18.42;;;11.60;39.70;;;;;;5052463;28;20036;-76
2022/03/25 01:08:04;;;;;;;27.90;17.55;;;11.60;39.90;;;;;;5054097;28;20029;-77
2022/03/25 01:10:31;;;;;;;29.27;18.05;;;11.60;40.00;;;;;;5053959;28;20041;-77
2022/03/25 01:12:57;;;;;;;25.23;17.33;;;11.50;39.80;;;;;;5053775;28;20487;-76
2022/03/25 01:15:23;;;;;;;37.63;18.33;;;11.50;39.90;;;;;;5052962;28;20120;-76
2022/03/25 01:17:48;;;;;;;33.45;17.42;;;11.40;39.90;;;;;;5053815;28;20377;-76
2022/03/25 01:20:14;;;;;;;35.40;17.85;;;11.40;39.90;;;;;;5053044;28;20525;-76
2022/03/25 01:22:39;;;;;;;27.10;17.35;;;11.40;40.00;;;;;;5053013;28;20394;-76
2022/03/25 01:25:08;;;;;;;26.45;16.95;;;11.40;40.20;;;;;;5053146;28;20032;-86
2022/03/25 01:27:34;;;;;;;26.40;18.35;;;11.40;40.20;;;;;;5053540;28;20362;-75
2022/03/25 01:29:59;;;;;;;26.85;17.80;;;11.30;40.10;;;;;;5052085;28;20036;-76
2022/03/25 01:32:25;;;;;;;30.50;17.08;;;11.30;40.20;;;;;;5052698;28;20278;-76
2022/03/25 01:34:51;;;;;;;35.38;17.60;;;11.20;40.20;;;;;;5052857;28;20381;-76
2022/03/25 01:37:17;;;;;;;29.65;17.42;;;11.20;40.40;;;;;;5052219;28;20041;-75
2022/03/25 01:39:43;;;;;;;28.13;17.42;;;11.20;40.70;;;;;;5052092;28;20043;-75
2022/03/25 01:42:10;;;;;;;28.55;16.70;;;11.10;40.70;;;;;;5052149;28;20100;-77
2022/03/25 01:44:35;;;;;;;29.15;17.02;;;11.10;40.60;;;;;;5052737;28;20048;-76
2022/03/25 01:47:02;;;;;;;26.50;17.40;;;11.20;40.60;;;;;;5052691;28;20025;-75
2022/03/25 01:49:27;;;;;;;27.05;16.65;;;11.10;40.60;;;;;;5052008;28;20055;-75
2022/03/25 01:51:56;;;;;;;25.95;16.30;;;11.10;40.40;;;;;;5052507;28;21408;-76
2022/03/25 01:54:27;;;;;;;25.30;16.63;;;11.10;40.40;;;;;;5046745;28;20082;-75
2022/03/25 01:57:02;;;;;;;25.88;17.65;;;11.10;40.60;;;;;;5052196;28;20469;-76
2022/03/25 01:59:29;;;;;;;26.90;16.75;;;11.10;40.70;;;;;;5031811;28;20398;-76
2022/03/25 02:01:55;;;;;;;27.80;18.50;;;11.00;40.70;;;;;;5037959;28;20028;-77
2022/03/25 02:04:22;;;;;;;25.67;17.45;;;11.00;40.70;;;;;;5045969;28;20049;-75
2022/03/25 02:06:48;;;;;;;26.70;17.35;;;11.00;40.60;;;;;;5033023;28;20117;-77
2022/03/25 02:09:14;;;;;;;31.63;17.33;;;10.90;40.40;;;;;;5061302;28;20032;-75
2022/03/25 02:11:40;;;;;;;27.10;17.55;;;10.90;40.50;;;;;;5072487;28;20032;-78
2022/03/25 02:14:25;;;;;;;31.95;17.05;;;10.80;40.70;;;;;;5072696;28;20024;-78
2022/03/25 02:16:51;;;;;;;28.55;17.45;;;10.70;40.80;;;;;;5059173;28;20025;-76
2022/03/25 02:19:18;;;;;;;27.52;16.20;;;10.60;41.00;;;;;;5051478;28;20362;-77
2022/03/25 02:21:45;;;;;;;28.02;16.88;;;10.60;41.20;;;;;;5051541;28;20386;-77
2022/03/25 02:24:15;;;;;;;26.27;17.33;;;10.60;41.40;;;;;;5051458;28;20025;-79
2022/03/25 02:26:41;;;;;;;27.55;16.50;;;10.50;41.40;;;;;;5052241;28;20051;-78
2022/03/25 02:29:09;;;;;;;28.58;17.23;;;10.50;41.30;;;;;;5052240;28;20017;-78
2022/03/25 02:31:36;;;;;;;26.52;16.95;;;10.50;41.70;;;;;;5057135;28;20017;-76
2022/03/25 02:34:04;;;;;;;31.15;17.50;;;10.50;41.20;;;;;;5060606;28;20049;-77
2022/03/25 02:36:36;;;;;;;25.48;16.48;;;10.50;41.30;;;;;;5051408;28;20305;-78
2022/03/25 02:39:02;;;;;;;28.20;17.35;;;10.40;41.30;;;;;;5052510;28;20078;-76
2022/03/25 02:41:28;;;;;;;29.27;15.65;;;10.40;41.20;;;;;;5051020;28;20041;-77
2022/03/25 02:43:54;;;;;;;31.02;16.88;;;10.40;41.10;;;;;;5050493;28;20031;-77
2022/03/25 02:46:20;;;;;;;31.80;16.17;;;10.40;41.00;;;;;;5050887;28;20429;-76
2022/03/25 02:48:45;;;;;;;26.48;16.60;;;10.30;41.10;;;;;;5051366;28;20017;-77
2022/03/25 02:51:11;;;;;;;26.35;16.92;;;10.30;41.10;;;;;;5052519;28;20052;-85
2022/03/25 02:53:37;;;;;;;26.70;16.95;;;10.30;41.10;;;;;;5052300;28;20119;-75
2022/03/25 02:56:03;;;;;;;28.40;16.90;;;10.20;41.10;;;;;;5051793;28;20191;-77
2022/03/25 02:58:28;;;;;;;28.58;16.20;;;10.20;41.30;;;;;;5051460;28;20075;-77
2022/03/25 03:00:54;;;;;;;26.73;16.90;;;10.10;41.30;;;;;;5051495;28;20502;-77
2022/03/25 03:03:20;;;;;;;26.05;16.85;;;10.10;41.50;;;;;;5051590;28;20032;-78
2022/03/25 03:05:45;;;;;;;29.35;17.40;;;10.00;41.60;;;;;;5051767;28;20102;-77
2022/03/25 03:08:11;;;;;;;31.00;17.02;;;10.00;41.80;;;;;;5050060;28;20033;-79
2022/03/25 03:10:37;;;;;;;30.10;16.85;;;9.90;41.80;;;;;;5051338;28;20040;-77
2022/03/25 03:13:02;;;;;;;36.53;17.75;;;9.90;42.00;;;;;;5055132;28;20056;-77
2022/03/25 03:15:28;;;;;;;27.73;17.33;;;9.80;42.10;;;;;;5055300;28;20112;-76
2022/03/25 03:17:54;;;;;;;35.13;17.20;;;9.80;42.30;;;;;;5055723;28;20029;-76
2022/03/25 03:20:21;;;;;;;28.08;17.65;;;9.80;42.40;;;;;;5054991;28;20029;-77
2022/03/25 03:22:48;;;;;;;27.55;16.02;;;9.70;42.50;;;;;;5055514;28;20033;-77
2022/03/25 03:25:14;;;;;;;30.45;17.70;;;9.70;42.50;;;;;;5054871;28;20029;-86
2022/03/25 03:27:40;;;;;;;26.88;16.85;;;9.70;42.50;;;;;;5055477;28;20383;-77
2022/03/25 03:30:08;;;;;;;25.33;16.77;;;9.70;42.40;;;;;;5055745;28;20089;-76
2022/03/25 03:32:35;;;;;;;29.27;16.42;;;9.70;42.50;;;;;;5055156;28;20462;-76
2022/03/25 03:35:02;;;;;;;32.80;17.92;;;9.70;42.50;;;;;;5055516;28;20033;-77
2022/03/25 03:37:29;;;;;;;33.25;17.20;;;9.70;42.50;;;;;;5054640;28;20094;-77
2022/03/25 03:39:54;;;;;;;28.92;16.73;;;9.70;42.60;;;;;;5054534;28;20462;-77
2022/03/25 03:42:20;;;;;;;29.67;17.63;;;9.70;42.60;;;;;;5054758;28;20031;-77
2022/03/25 03:44:46;;;;;;;25.73;17.05;;;9.60;42.60;;;;;;5055464;28;20110;-77
2022/03/25 03:47:12;;;;;;;35.53;18.38;;;9.50;42.70;;;;;;5055402;28;20025;-76
2022/03/25 03:49:38;;;;;;;26.75;16.55;;;9.50;42.90;;;;;;5054944;28;20450;-78
2022/03/25 03:52:05;;;;;;;29.65;18.08;;;9.50;42.90;;;;;;5055514;28;20025;-76
2022/03/25 03:54:32;;;;;;;31.15;17.48;;;9.40;42.90;;;;;;5054504;28;20039;-76
2022/03/25 03:56:58;;;;;;;28.17;17.58;;;9.50;43.00;;;;;;5054999;28;20462;-77
2022/03/25 03:59:24;;;;;;;28.50;17.50;;;9.40;43.10;;;;;;5054401;28;20043;-77
2022/03/25 04:01:50;;;;;;;27.38;16.08;;;9.40;43.10;;;;;;5054860;28;20452;-77
2022/03/25 04:04:16;;;;;;;27.40;16.65;;;9.40;43.20;;;;;;5054816;28;20033;-78
2022/03/25 04:06:41;;;;;;;26.73;17.23;;;9.40;43.20;;;;;;5054755;28;20017;-77
2022/03/25 04:09:07;;;;;;;28.33;18.23;;;9.40;43.20;;;;;;5054643;28;20028;-77
2022/03/25 04:11:33;;;;;;;28.92;17.48;;;9.40;43.30;;;;;;5054010;28;20532;-77
2022/03/25 04:13:58;;;;;;;28.88;17.90;;;9.40;43.10;;;;;;5054553;28;20028;-77
2022/03/25 04:16:24;;;;;;;32.35;17.52;;;9.40;43.30;;;;;;5053904;28;20033;-77
2022/03/25 04:18:50;;;;;;;32.97;17.83;;;9.40;43.30;;;;;;5054809;28;20025;-77
2022/03/25 04:21:16;;;;;;;29.30;17.33;;;9.30;43.20;;;;;;5054399;28;20021;-76
2022/03/25 04:23:42;;;;;;;27.23;16.70;;;9.30;43.20;;;;;;5052330;28;20060;-77
2022/03/25 04:26:07;;;;;;;27.13;16.98;;;9.30;43.30;;;;;;5053941;28;20048;-77
2022/03/25 04:28:33;;;;;;;29.85;17.77;;;9.30;43.30;;;;;;5053657;28;20108;-77
2022/03/25 04:30:59;;;;;;;28.77;18.50;;;9.20;43.30;;;;;;5054314;28;20039;-77
2022/03/25 04:33:24;;;;;;;31.20;17.70;;;9.20;43.50;;;;;;5053669;28;20025;-77
2022/03/25 04:35:50;;;;;;;34.47;17.75;;;9.20;43.60;;;;;;5054141;28;20100;-77
2022/03/25 04:38:16;;;;;;;29.30;17.60;;;9.20;43.70;;;;;;5054230;28;20033;-77
2022/03/25 04:40:41;;;;;;;30.42;18.10;;;9.20;43.70;;;;;;5053702;28;20454;-77
2022/03/25 04:43:07;;;;;;;27.75;17.42;;;9.20;43.80;;;;;;5054407;28;20032;-77
2022/03/25 04:45:34;;;;;;;29.98;18.33;;;9.20;43.80;;;;;;5053470;28;20571;-77
2022/03/25 04:48:00;;;;;;;29.02;17.48;;;9.20;43.80;;;;;;5054158;28;20087;-77
2022/03/25 04:50:27;;;;;;;40.58;18.70;;;9.20;43.90;;;;;;5053262;28;20078;-76
2022/03/25 04:52:53;;;;;;;28.70;17.38;;;9.10;43.70;;;;;;5053877;28;20033;-76
2022/03/25 04:55:20;;;;;;;27.02;17.58;;;9.10;44.00;;;;;;5053792;28;20056;-77
2022/03/25 04:57:46;;;;;;;29.23;17.70;;;9.10;44.10;;;;;;5053716;28;20040;-77
2022/03/25 05:00:12;;;;;;;29.63;17.90;;;9.10;44.20;;;;;;5053694;28;20417;-77
2022/03/25 05:02:38;;;;;;;27.83;17.85;;;9.10;44.30;;;;;;5053339;28;20032;-77
2022/03/25 05:05:04;;;;;;;31.00;17.08;;;9.10;44.40;;;;;;5053567;28;20120;-77
2022/03/25 05:07:30;;;;;;;29.80;18.80;;;9.10;44.60;;;;;;5052942;28;20335;-77
2022/03/25 05:10:00;;;;;;;33.15;18.40;;;9.10;44.60;;;;;;5053318;28;20025;-76
2022/03/25 05:12:26;;;;;;;29.25;17.80;;;9.10;44.50;;;;;;5052485;28;20033;-76
2022/03/25 05:14:53;;;;;;;32.60;18.85;;;9.10;45.20;;;;;;5053093;28;20048;-77
2022/03/25 05:17:18;;;;;;;32.00;18.02;;;9.10;44.60;;;;;;5053189;28;20047;-75
2022/03/25 05:19:44;;;;;;;29.80;18.15;;;9.10;44.70;;;;;;5052696;28;20466;-76
2022/03/25 05:22:10;;;;;;;35.47;18.70;;;9.10;44.70;;;;;;5053318;28;20025;-76
2022/03/25 05:24:35;;;;;;;34.03;19.30;;;9.10;44.90;;;;;;5052550;28;20025;-76
2022/03/25 05:27:01;;;;;;;31.05;18.13;;;9.10;44.80;;;;;;5051926;28;20055;-78
2022/03/25 05:29:28;;;;;;;33.38;19.02;;;9.20;44.80;;;;;;5050551;28;20028;-75
2022/03/25 05:31:54;;;;;;;33.70;18.35;;;9.20;44.80;;;;;;5052887;28;20453;-76
2022/03/25 05:34:20;;;;;;;31.88;18.98;;;9.20;44.80;;;;;;5052344;28;20032;-76
2022/03/25 05:36:45;;;;;;;32.58;18.65;;;9.30;44.90;;;;;;5052165;28;20404;-76
2022/03/25 05:39:11;;;;;;;31.10;18.45;;;9.30;44.80;;;;;;5052622;28;20032;-74
2022/03/25 05:41:38;;;;;;;35.42;18.80;;;9.30;44.60;;;;;;5051958;28;20025;-76
2022/03/25 05:44:04;;;;;;;36.47;18.33;;;9.30;45.00;;;;;;5052597;28;20493;-76
2022/03/25 05:46:29;;;;;;;31.65;18.48;;;9.30;44.90;;;;;;5052135;28;20029;-76
2022/03/25 05:48:55;;;;;;;32.30;19.92;;;9.40;44.80;;;;;;5052979;28;20025;-77
2022/03/25 05:51:21;;;;;;;35.55;18.60;;;9.40;44.90;;;;;;5052499;28;20438;-76
2022/03/25 05:53:47;;;;;;;33.53;18.60;;;9.40;44.90;;;;;;5052001;28;20029;-76
2022/03/25 05:56:13;;;;;;;38.28;19.67;;;9.50;44.90;;;;;;5052805;28;20056;-77
2022/03/25 05:58:39;;;;;;;34.85;19.42;;;9.50;44.80;;;;;;5050753;28;20052;-76
2022/03/25 06:01:07;;;;;;;35.20;18.58;;;9.60;44.90;;;;;;5052485;28;20029;-77
2022/03/25 06:03:33;;;;;;;34.45;19.70;;;9.60;44.70;;;;;;5051702;28;20512;-76
2022/03/25 06:06:05;;;;;;;39.50;18.77;;;9.70;44.60;;;;;;5052361;28;20028;-75
2022/03/25 06:08:31;;;;;;;31.85;18.73;;;9.70;44.60;;;;;;5051807;28;20091;-76
2022/03/25 06:10:58;;;;;;;32.08;19.70;;;9.80;44.70;;;;;;5052480;28;20064;-75
2022/03/25 06:13:24;;;;;;;36.70;19.48;;;9.80;44.70;;;;;;5052040;28;20039;-86
2022/03/25 06:15:50;;;;;;;35.90;20.05;;;9.80;44.80;;;;;;5051253;28;20425;-77
2022/03/25 06:18:16;;;;;;;35.05;20.52;;;9.90;44.70;;;;;;5052227;28;20025;-76
2022/03/25 06:20:42;;;;;;;44.05;20.48;;;10.00;44.80;;;;;;5051478;28;20025;-75
2022/03/25 06:23:08;;;;;;;41.92;20.92;;;10.00;44.70;;;;;;5051935;28;20108;-77
2022/03/25 06:25:34;;;;;;;42.92;21.08;;;10.10;44.70;;;;;;5051474;28;20036;-75
2022/03/25 06:28:02;;;;;;;38.85;21.15;;;10.10;44.80;;;;;;5051608;28;20021;-75
2022/03/25 06:30:31;;;;;;;39.33;21.05;;;10.20;44.90;;;;;;5051526;28;20029;-76
2022/03/25 06:32:58;;;;;;;35.55;19.65;;;10.20;44.70;;;;;;5051977;28;20032;-75
2022/03/25 06:35:24;;;;;;;44.35;22.45;;;10.30;44.80;;;;;;5051877;28;20532;-76
2022/03/25 06:37:52;;;;;;;42.88;20.92;;;10.40;44.60;;;;;;5051881;28;20033;-76
2022/03/25 06:40:18;;;;;;;41.25;21.25;;;10.40;44.40;;;;;;5051977;28;20062;-75
2022/03/25 06:42:45;;;;;;;35.53;21.05;;;10.50;44.90;;;;;;5051310;28;20473;-75
2022/03/25 06:45:12;;;;;;;41.65;21.38;;;10.50;44.20;;;;;;5052017;28;20035;-75
2022/03/25 06:47:38;;;;;;;43.10;21.15;;;10.60;44.30;;;;;;5051156;28;20052;-75
2022/03/25 06:50:06;;;;;;;38.95;21.80;;;10.70;44.20;;;;;;5051747;28;20029;-75
2022/03/25 06:52:32;;;;;;;39.90;21.45;;;10.80;44.10;;;;;;5051112;28;20027;-75
2022/03/25 06:54:58;;;;;;;39.53;21.55;;;10.90;43.60;;;;;;5051493;28;20060;-75
2022/03/25 06:57:24;;;;;;;35.33;21.33;;;11.00;43.20;;;;;;5051571;28;20025;-76
2022/03/25 06:59:50;;;;;;;38.70;21.98;;;11.10;42.70;;;;;;5051155;28;20068;-75
2022/03/25 07:02:16;;;;;;;43.72;22.70;;;11.20;42.40;;;;;;5051734;28;20397;-75
2022/03/25 07:04:41;;;;;;;38.38;22.50;;;11.30;42.50;;;;;;5051037;28;20453;-75
2022/03/25 07:07:07;;;;;;;42.28;21.73;;;11.50;42.20;;;;;;5051504;28;20385;-79
2022/03/25 07:09:35;;;;;;;41.90;22.77;;;11.70;41.90;;;;;;5051444;28;20481;-76
2022/03/25 07:12:02;;;;;;;41.08;22.55;;;11.90;41.50;;;;;;5051958;28;20381;-75
2022/03/25 07:14:28;;;;;;;33.20;21.35;;;12.20;41.00;;;;;;5050986;28;20021;-81
2022/03/25 07:16:54;;;;;;;35.75;21.55;;;12.60;39.70;;;;;;5051448;28;20025;-75
2022/03/25 07:19:20;;;;;;;38.33;21.23;;;12.90;38.50;;;;;;5051709;28;20029;-75
2022/03/25 07:21:46;;;;;;;36.83;20.23;;;13.30;37.40;;;;;;5051102;28;20028;-76
2022/03/25 07:24:12;;;;;;;32.78;21.70;;;13.70;35.70;;;;;;5050434;28;20452;-76
2022/03/25 07:26:38;;;;;;;30.73;21.02;;;14.10;35.40;;;;;;5051301;28;20059;-76
2022/03/25 07:29:04;;;;;;;31.83;20.63;;;14.60;34.30;;;;;;5051580;28;20466;-76
2022/03/25 07:31:32;;;;;;;29.63;19.58;;;15.20;32.70;;;;;;5050789;28;20036;-76
2022/03/25 07:33:58;;;;;;;29.67;20.20;;;16.40;31.70;;;;;;5051316;28;20052;-76
2022/03/25 07:36:24;;;;;;;32.38;20.98;;;18.40;29.60;;;;;;5051231;28;20083;-75
2022/03/25 07:38:50;;;;;;;27.35;19.85;;;21.50;27.50;;;;;;5050660;28;20036;-75
2022/03/25 07:41:16;;;;;;;35.17;20.25;;;23.90;25.10;;;;;;5050876;28;20033;-77
2022/03/25 07:43:42;;;;;;;32.00;20.30;;;25.60;23.60;;;;;;5050984;28;20075;-75
2022/03/25 07:46:08;;;;;;;31.33;20.00;;;27.00;23.00;;;;;;5051059;28;20025;-76
2022/03/25 07:48:33;;;;;;;28.40;20.35;;;27.90;22.00;;;;;;5050716;28;20032;-76
2022/03/25 07:50:59;;;;;;;26.80;18.42;;;28.40;21.90;;;;;;5051308;28;20025;-76
2022/03/25 07:53:25;;;;;;;27.85;19.45;;;28.20;21.10;;;;;;5051149;28;20503;-76
2022/03/25 07:55:51;;;;;;;26.10;19.45;;;28.10;21.20;;;;;;5050231;28;20045;-76
2022/03/25 07:58:20;;;;;;;28.92;20.35;;;28.60;21.50;;;;;;5052977;28;20029;-77
2022/03/25 08:00:47;;;;;;;28.20;19.13;;;28.80;20.70;;;;;;5041346;28;20033;-77
2022/03/25 08:03:13;;;;;;;29.73;18.83;;;29.20;20.90;;;;;;5035016;28;20048;-76
2022/03/25 08:05:39;;;;;;;27.38;19.08;;;29.30;20.70;;;;;;5034324;28;20021;-76
2022/03/25 08:08:05;;;;;;;24.98;18.90;;;29.20;20.60;;;;;;5035213;28;20033;-77
2022/03/25 08:10:32;;;;;;;27.50;19.25;;;29.40;20.80;;;;;;5034048;28;20040;-87
2022/03/25 08:12:58;;;;;;;30.73;19.88;;;29.70;20.40;;;;;;5034755;28;20026;-76
2022/03/25 08:15:29;;;;;;;25.60;19.30;;;29.60;20.50;;;;;;5034539;28;20064;-76
2022/03/25 08:18:05;;;;;;;29.08;18.98;;;30.00;20.20;;;;;;5034224;28;20029;-77
2022/03/25 08:20:39;;;;;;;30.50;19.45;;;30.10;20.10;;;;;;5034524;28;20092;-87
2022/03/25 08:23:06;;;;;;;26.20;19.13;;;30.00;20.10;;;;;;5040533;28;20382;-76
2022/03/25 08:28:35;;;;;;;24.05;19.10;;;29.70;20.10;;;;;;5054303;28;20484;-77
2022/03/25 08:31:01;;;;;;;22.50;18.33;;;29.40;20.30;;;;;;5054860;28;20162;-76
2022/03/25 08:33:27;;;;;;;26.27;18.60;;;29.30;20.30;;;;;;5053028;28;20061;-77
2022/03/25 08:35:53;;;;;;;31.42;18.88;;;29.00;20.20;;;;;;5053637;28;20041;-75
2022/03/25 08:38:18;;;;;;;27.17;19.70;;;29.30;20.20;;;;;;5054416;28;20036;-76
2022/03/25 08:40:44;;;;;;;28.00;19.40;;;29.20;20.50;;;;;;5053687;28;20033;-77
2022/03/25 08:43:09;;;;;;;30.52;20.92;;;28.50;20.50;;;;;;5054200;28;20055;-75
2022/03/25 08:45:35;;;;;;;30.42;20.83;;;26.80;20.70;;;;;;5053418;28;20079;-77
2022/03/25 08:48:01;;;;;;;32.15;21.80;;;25.10;21.60;;;;;;5054114;28;20128;-77
2022/03/25 08:50:27;;;;;;;33.30;22.05;;;23.80;22.50;;;;;;5054094;28;20032;-77
2022/03/25 08:52:53;;;;;;;31.52;21.60;;;23.00;23.50;;;;;;5053445;28;20029;-76
2022/03/25 08:55:20;;;;;;;35.75;21.73;;;22.30;23.90;;;;;;5053694;28;20053;-76
2022/03/25 08:57:47;;;;;;;30.30;21.77;;;21.80;24.70;;;;;;5052910;28;20053;-76
2022/03/25 09:00:15;;;;;;;32.60;21.55;;;21.40;25.00;;;;;;5053743;28;20091;-76
2022/03/25 09:02:43;;;;;;;32.13;19.88;;;21.10;25.20;;;;;;5053211;28;20078;-77
2022/03/25 09:05:09;;;;;;;34.42;21.48;;;20.90;25.70;;;;;;5053662;28;20029;-77
2022/03/25 09:07:36;;;;;;;39.60;21.58;;;20.60;25.90;;;;;;5053640;28;20028;-85
2022/03/25 09:10:03;;;;;;;34.22;22.40;;;20.50;26.00;;;;;;5052332;28;20029;-76
2022/03/25 09:12:28;;;;;;;27.42;20.58;;;20.30;26.40;;;;;;5053065;28;20055;-77
2022/03/25 09:14:54;;;;;;;28.83;21.50;;;20.20;26.60;;;;;;5052384;28;20349;-75
2022/03/25 09:17:20;;;;;;;36.42;20.58;;;20.30;26.90;;;;;;5053684;28;20029;-76
2022/03/25 09:19:45;;;;;;;32.45;21.08;;;20.30;26.70;;;;;;5052975;28;20021;-76
2022/03/25 09:22:11;;;;;;;30.23;20.00;;;20.30;26.90;;;;;;5053006;28;20119;-76
2022/03/25 09:24:37;;;;;;;30.45;20.45;;;20.50;27.00;;;;;;5052602;28;20029;-77
2022/03/25 09:27:03;;;;;;;31.80;21.15;;;20.60;26.60;;;;;;5053539;28;20032;-76
2022/03/25 09:29:29;;;;;;;30.65;20.73;;;20.60;27.10;;;;;;5053172;28;20036;-77
2022/03/25 09:31:55;;;;;;;27.73;19.48;;;20.70;26.70;;;;;;5052489;28;20029;-76
2022/03/25 09:37:05;;;;;;;26.15;18.58;;;20.90;26.30;;;;;;5052788;28;20087;-77
2022/03/25 09:39:31;;;;;;;29.10;17.55;;;20.80;25.80;;;;;;5052397;28;20033;-77
2022/03/25 09:41:59;;;;;;;28.35;18.75;;;20.70;25.90;;;;;;5052258;28;20224;-75
2022/03/25 09:44:24;;;;;;;34.60;20.42;;;20.60;26.00;;;;;;5052516;28;20044;-76
2022/03/25 09:46:50;;;;;;;27.48;19.15;;;20.60;26.10;;;;;;5052259;28;20024;-75
2022/03/25 09:49:36;;;;;;;27.70;17.77;;;20.50;26.00;;;;;;5052806;28;20123;-77
2022/03/25 09:52:01;;;;;;;27.55;17.30;;;20.40;26.40;;;;;;5052558;28;20024;-76
2022/03/25 09:54:27;;;;;;;27.20;16.08;;;20.40;26.10;;;;;;5052540;28;20108;-77
2022/03/25 09:56:53;;;;;;;26.48;15.00;;;20.40;25.90;;;;;;5052295;28;20183;-76
2022/03/25 09:59:19;;;;;;;22.90;15.55;;;20.30;26.10;;;;;;5052518;28;20131;-76
2022/03/25 10:01:45;;;;;;;22.83;15.38;;;20.20;25.80;;;;;;5052098;28;20037;-77
2022/03/25 10:04:41;;;;;;;22.30;15.40;;;20.10;25.90;;;;;;5052224;28;20470;-77
2022/03/25 10:10:21;;;;;;;28.77;14.65;;;20.10;26.30;;;;;;5052002;28;20048;-77
2022/03/25 10:12:49;;;;;;;23.83;14.45;;;20.00;26.00;;;;;;5051901;28;20029;-77
2022/03/25 10:15:21;;;;;;;25.40;15.88;;;20.00;26.00;;;;;;5052446;28;20098;-77
2022/03/25 10:18:06;;;;;;;28.42;17.10;;;20.00;26.40;;;;;;5050549;28;20242;-77
2022/03/25 10:20:33;;;;;;;22.73;16.02;;;19.90;26.80;;;;;;5052190;28;20024;-76
2022/03/25 10:23:19;;;;;;;23.30;15.10;;;19.90;26.70;;;;;;5051922;28;20174;-76
2022/03/25 10:25:47;;;;;;;24.88;14.35;;;19.90;27.00;;;;;;5051828;28;20044;-77
2022/03/25 10:28:18;;;;;;;19.25;14.55;;;19.90;26.30;;;;;;5052206;28;20461;-77
2022/03/25 10:30:48;;;;;;;21.77;15.52;;;20.00;25.80;;;;;;5051454;28;20103;-77
2022/03/25 10:33:23;;;;;;;26.58;16.58;;;20.10;25.90;;;;;;5051810;28;20047;-75
2022/03/25 10:36:08;;;;;;;32.00;16.13;;;20.20;26.30;;;;;;5051589;28;20025;-77
2022/03/25 10:38:42;;;;;;;23.23;16.77;;;20.20;25.40;;;;;;5052484;28;20081;-76
2022/03/25 10:41:09;;;;;;;26.13;16.73;;;20.20;25.50;;;;;;5052342;28;20448;-76
2022/03/25 10:43:46;;;;;;;25.50;17.60;;;20.20;25.80;;;;;;5052067;28;20095;-77
2022/03/25 10:46:29;;;;;;;34.10;17.85;;;20.20;25.50;;;;;;5052073;28;20412;-76
2022/03/25 10:48:54;;;;;;;30.65;19.15;;;20.20;25.80;;;;;;5051457;28;20468;-76
2022/03/25 10:51:20;;;;;;;28.90;19.52;;;20.20;26.20;;;;;;5051945;28;20077;-76
2022/03/25 10:53:47;;;;;;;29.17;19.45;;;20.30;27.10;;;;;;5051582;28;20148;-77
2022/03/25 10:56:14;;;;;;;28.65;20.17;;;20.30;26.40;;;;;;5052087;28;20072;-76
2022/03/25 10:58:50;;;;;;;32.08;20.15;;;20.30;26.40;;;;;;5051695;28;20036;-77
2022/03/25 11:01:16;;;;;;;33.47;21.20;;;20.30;27.00;;;;;;5051042;28;20112;-76
2022/03/25 11:03:44;;;;;;;32.38;20.23;;;20.30;26.60;;;;;;5051311;28;20087;-77
2022/03/25 11:06:15;;;;;;;33.83;21.20;;;20.40;26.80;;;;;;5051112;28;20025;-76
2022/03/25 11:08:42;;;;;;;32.35;20.98;;;20.40;26.60;;;;;;5051400;28;20032;-76
2022/03/25 11:11:08;;;;;;;33.72;21.45;;;20.40;26.40;;;;;;5050820;28;20036;-77
2022/03/25 11:13:34;;;;;;;27.15;20.50;;;20.40;26.50;;;;;;5050938;28;20389;-76
2022/03/25 11:16:02;;;;;;;30.50;20.50;;;20.40;26.70;;;;;;5050757;28;20033;-77
2022/03/25 11:18:28;;;;;;;28.52;19.70;;;20.40;26.90;;;;;;5051454;28;20021;-77
2022/03/25 11:20:58;;;;;;;36.70;20.73;;;20.50;26.70;;;;;;5050646;28;20037;-76
2022/03/25 11:23:43;;;;;;;30.98;20.55;;;20.50;26.90;;;;;;5051254;28;20070;-77
2022/03/25 11:26:13;;;;;;;28.88;20.13;;;20.50;26.30;;;;;;5050803;28;20059;-76
2022/03/25 11:28:39;;;;;;;32.80;21.30;;;20.50;26.40;;;;;;5051166;28;20029;-76
2022/03/25 11:31:07;;;;;;;29.38;21.48;;;20.60;26.30;;;;;;5050727;28;20033;-76
2022/03/25 11:34:11;;;;;;;27.70;20.58;;;20.60;25.70;;;;;;5053795;28;20450;-76
2022/03/25 11:36:43;;;;;;;29.63;19.17;;;20.50;25.80;;;;;;5055051;28;20032;-76
2022/03/25 11:39:21;;;;;;;32.85;21.70;;;20.50;25.90;;;;;;5053007;28;20021;-76
2022/03/25 11:41:47;;;;;;;30.23;20.50;;;20.40;25.90;;;;;;5054761;28;20052;-78
2022/03/25 11:44:16;;;;;;;30.13;21.05;;;20.40;25.80;;;;;;5055194;28;20040;-76
2022/03/25 11:47:14;;;;;;;28.90;20.30;;;20.40;26.50;;;;;;5055040;28;20029;-76
2022/03/25 11:49:40;;;;;;;27.13;20.42;;;20.40;25.70;;;;;;5042637;28;20041;-76
2022/03/25 11:52:27;;;;;;;29.17;20.75;;;20.40;25.50;;;;;;5054527;28;20484;-76
2022/03/25 11:55:01;;;;;;;24.33;19.52;;;20.30;25.10;;;;;;5053944;28;20057;-77
2022/03/25 11:57:34;;;;;;;26.70;18.90;;;20.40;25.90;;;;;;5054968;28;20021;-76
2022/03/25 12:00:03;;;;;;;26.13;20.63;;;20.40;25.30;;;;;;5054102;28;20109;-76
2022/03/25 12:02:42;;;;;;;27.88;20.52;;;20.40;25.60;;;;;;5053405;28;20441;-77
2022/03/25 12:05:32;;;;;;;32.40;21.60;;;20.30;25.70;;;;;;5053927;28;20025;-76
2022/03/25 12:08:36;;;;;;;26.15;20.38;;;20.30;25.30;;;;;;5050401;28;20103;-76
2022/03/25 12:11:07;;;;;;;29.52;19.98;;;20.30;25.70;;;;;;5031768;28;20029;-77
2022/03/25 12:13:51;;;;;;;30.85;19.95;;;20.30;25.20;;;;;;5032088;28;20125;-76
2022/03/25 12:16:48;;;;;;;25.85;19.27;;;20.40;25.60;;;;;;5032054;28;20034;-76
2022/03/25 12:19:25;;;;;;;33.83;19.75;;;20.40;25.70;;;;;;5031992;28;20033;-76
2022/03/25 12:21:54;;;;;;;30.20;20.10;;;20.40;25.20;;;;;;5031151;28;20053;-75
2022/03/25 12:24:21;;;;;;;30.85;20.23;;;20.30;25.00;;;;;;5032100;28;20040;-76
2022/03/25 12:26:58;;;;;;;29.65;19.88;;;20.30;25.10;;;;;;5032012;28;20037;-76
2022/03/25 12:29:31;;;;;;;27.48;19.42;;;20.30;25.20;;;;;;5031916;28;20044;-77
2022/03/25 12:32:00;;;;;;;28.02;19.92;;;20.30;25.40;;;;;;5031072;28;20037;-77
2022/03/25 12:34:31;;;;;;;26.77;20.38;;;20.20;25.40;;;;;;5031874;28;20036;-76
2022/03/25 12:37:01;;;;;;;28.90;20.23;;;20.10;25.40;;;;;;5031211;28;20033;-77
2022/03/25 12:39:28;;;;;;;29.05;19.90;;;20.00;25.70;;;;;;5031478;28;20083;-76
2022/03/25 12:41:55;;;;;;;26.95;21.50;;;19.80;25.80;;;;;;5032537;28;20049;-76
2022/03/25 12:44:28;;;;;;;31.08;21.20;;;19.70;25.70;;;;;;5034234;28;20120;-76